Time;durP1;ratioP1;P1;durP2;ratioP2;P2;SDS_P1;SDS_P2;PMS_P1;PMS_P2;Temp;Humidity;BMP_temperature;BMP_pressure;BME280_temperature;BME280_humidity;BME280_pressure;Samples;Min_cycle;Max_cycle;Signal;HPM_P1;HPM_P2
2024/01/16 00:02:15;;;;;;;2.30;1.35;;;;;;;20.43;48.45;99096.13;41426678;28;20042;-73
2024/01/16 00:22:15;;;;;;;1.48;1.38;;;;;;;20.39;48.51;99121.03;41454745;28;20493;-73
2024/01/16 00:42:16;;;;;;;1.38;1.13;;;;;;;20.30;48.45;99153.44;41342993;28;20046;-74
2024/01/16 01:02:16;;;;;;;2.42;1.13;;;;;;;20.26;48.41;99181.81;41394861;28;20038;-74
2024/01/16 01:22:17;;;;;;;1.27;1.05;;;;;;;20.24;47.96;99201.34;41444680;28;20066;-75
2024/01/16 01:42:17;;;;;;;0.93;0.90;;;;;;;20.18;47.75;99231.63;41357358;28;20092;-75
2024/01/16 02:02:20;;;;;;;1.10;1.00;;;;;;;20.12;47.87;99242.72;41346791;28;20041;-74
2024/01/16 02:22:25;;;;;;;1.95;0.80;;;;;;;20.18;47.81;99267.59;41336615;28;20100;-74
2024/01/16 02:42:25;;;;;;;1.10;0.95;;;;;;;20.17;47.99;99302.75;41421465;28;20504;-74
2024/01/16 03:02:28;;;;;;;0.75;0.75;;;;;;;20.18;47.59;99317.50;41422207;28;20090;-74
2024/01/16 03:22:29;;;;;;;0.95;0.90;;;;;;;20.15;47.58;99337.88;41366017;28;20050;-74
2024/01/16 03:42:30;;;;;;;2.58;0.80;;;;;;;20.16;47.62;99354.47;41290720;28;20524;-76
2024/01/16 04:02:32;;;;;;;0.93;0.80;;;;;;;20.12;47.48;99389.88;41322371;28;20042;-75
2024/01/16 04:22:33;;;;;;;0.80;0.80;;;;;;;20.11;47.63;99394.28;41308901;28;20057;-74
2024/01/16 04:42:35;;;;;;;1.20;0.80;;;;;;;20.13;46.94;99416.03;41347973;28;20050;-75
2024/01/16 05:02:35;;;;;;;1.08;0.80;;;;;;;20.18;46.70;99443.69;41441088;28;20049;-74
2024/01/16 05:22:35;;;;;;;7.47;0.90;;;;;;;20.70;45.72;99467.13;41441291;28;20882;-72
2024/01/16 05:42:36;;;;;;;7.15;2.33;;;;;;;21.09;46.59;99493.47;41407238;28;20521;-72
2024/01/16 06:02:36;;;;;;;11.77;2.80;;;;;;;21.05;45.46;99521.06;41374017;28;20050;-75
2024/01/16 06:22:37;;;;;;;8.77;1.98;;;;;;;20.53;40.69;99566.81;41289302;28;20038;-78
2024/01/16 06:42:37;;;;;;;11.07;2.13;;;;;;;21.21;41.19;99597.66;41395879;28;20031;-78
2024/01/16 07:02:37;;;;;;;4.63;1.70;;;;;;;21.18;40.85;99647.13;41458533;28;20050;-78
2024/01/16 07:22:41;;;;;;;4.50;1.33;;;;;;;21.43;41.24;99661.56;41396238;28;20034;-82
2024/01/16 07:42:43;;;;;;;2.45;1.25;;;;;;;21.43;40.75;99712.47;41466809;28;20049;-82
2024/01/16 08:02:43;;;;;;;3.38;1.40;;;;;;;21.44;40.46;99745.69;41467888;28;20104;-78
2024/01/16 08:22:46;;;;;;;4.05;1.45;;;;;;;21.61;41.11;99764.50;41461505;28;20417;-80
2024/01/16 08:42:51;;;;;;;3.75;1.10;;;;;;;21.57;41.26;99792.09;41473750;28;20046;-78
2024/01/16 09:02:51;;;;;;;2.05;1.05;;;;;;;21.52;40.36;99821.44;41460496;28;20087;-77
2024/01/16 09:22:52;;;;;;;1.90;1.10;;;;;;;21.50;40.81;99836.53;41457326;28;20053;-79
2024/01/16 09:42:52;;;;;;;5.25;1.52;;;;;;;21.57;39.93;99840.31;41471739;28;20054;-81
2024/01/16 10:02:53;;;;;;;3.28;1.10;;;;;;;21.83;40.63;99824.00;41317145;28;20046;-80
2024/01/16 10:22:54;;;;;;;2.25;0.95;;;;;;;21.96;40.15;99825.53;41357359;28;20037;-75
2024/01/16 10:43:05;;;;;;;1.85;1.00;;;;;;;21.99;40.38;99841.91;41468607;28;20046;-76
2024/01/16 11:03:09;;;;;;;2.17;1.30;;;;;;;22.29;39.31;99836.66;41488802;28;20060;-76
2024/01/16 11:23:13;;;;;;;2.92;2.05;;;;;;;22.30;40.02;99812.78;41442615;28;20050;-76
2024/01/16 11:43:32;;;;;;;3.85;2.58;;;;;;;22.35;40.27;99820.25;41431456;28;20049;-77
2024/01/16 12:03:32;;;;;;;4.70;3.00;;;;;;;22.15;40.84;99822.09;41449369;28;20046;-76
2024/01/16 12:23:33;;;;;;;9.55;5.35;;;;;;;22.82;40.31;99814.25;41458309;28;20043;-75
2024/01/16 12:43:34;;;;;;;10.02;6.57;;;;;;;23.08;44.28;99819.69;41447546;28;20088;-76
2024/01/16 13:03:35;;;;;;;8.35;5.65;;;;;;;23.03;43.07;99822.78;41417723;28;20112;-76
2024/01/16 13:23:35;;;;;;;10.68;4.97;;;;;;;23.14;42.39;99826.22;41390297;28;20045;-75
2024/01/16 13:43:37;;;;;;;5.88;3.90;;;;;;;22.67;42.47;99837.63;41395875;28;20053;-70
2024/01/16 14:03:38;;;;;;;6.07;3.85;;;;;;;22.32;42.86;99844.28;41436646;28;20077;-75
2024/01/16 14:23:39;;;;;;;8.23;3.10;;;;;;;22.30;43.23;99854.13;41461487;28;20034;-76
2024/01/16 14:43:39;;;;;;;5.00;2.88;;;;;;;22.10;43.03;99880.50;41494174;28;20053;-77
2024/01/16 15:03:40;;;;;;;2.92;2.60;;;;;;;21.87;43.08;99885.19;41463110;28;20037;-78
2024/01/16 15:23:41;;;;;;;5.22;2.65;;;;;;;21.68;42.90;99889.44;41419230;28;20049;-73
2024/01/16 15:43:41;;;;;;;2.30;1.90;;;;;;;21.52;42.56;99912.78;41408762;28;20061;-71
2024/01/16 16:03:44;;;;;;;6.22;2.15;;;;;;;19.90;27.93;99901.50;41382209;28;20050;-72
2024/01/16 16:23:45;;;;;;;4.60;2.33;;;;;;;21.21;37.45;99939.94;41375916;28;20041;-73
2024/01/16 16:43:52;;;;;;;8.20;2.28;;;;;;;21.24;40.43;99978.38;41436689;28;21454;-73
2024/01/16 17:03:53;;;;;;;26.95;7.10;;;;;;;21.36;43.68;99998.41;41405414;28;20069;-71
2024/01/16 17:23:53;;;;;;;23.27;6.30;;;;;;;21.36;45.06;100008.06;41332560;28;20082;-70
2024/01/16 17:43:54;;;;;;;17.73;5.88;;;;;;;;;;41387824;28;20052;-69
2024/01/16 18:03:56;;;;;;;13.32;5.03;;;;;;;21.52;48.34;100008.47;41406551;28;20108;-71
2024/01/16 18:23:57;;;;;;;14.93;5.53;;;;;;;21.54;49.12;99989.88;41308438;28;20472;-70
2024/01/16 18:43:57;;;;;;;14.65;6.20;;;;;;;21.42;51.80;99994.38;41334849;28;20129;-70
2024/01/16 19:03:58;;;;;;;12.32;5.40;;;;;;;21.30;50.24;99985.75;41385694;28;20034;-73
2024/01/16 19:23:58;;;;;;;10.90;5.45;;;;;;;21.22;49.35;99993.44;41402739;28;20686;-74
2024/01/16 19:43:59;;;;;;;13.10;5.72;;;;;;;21.04;49.22;99996.63;41396671;28;20056;-72
2024/01/16 20:04:00;;;;;;;10.10;6.00;;;;;;;21.21;48.53;99982.06;41384584;28;20049;-72
2024/01/16 20:24:02;;;;;;;12.35;7.30;;;;;;;20.89;47.22;99985.59;41374316;28;20401;-70
2024/01/16 20:44:02;;;;;;;12.85;6.82;;;;;;;20.98;46.99;99994.50;41354189;28;20039;-73
2024/01/16 21:04:03;;;;;;;8.93;5.78;;;;;;;20.97;46.69;100011.31;41393516;28;20046;-71
2024/01/16 21:24:05;;;;;;;9.63;6.07;;;;;;;20.89;46.60;100006.66;41406006;28;20081;-71
2024/01/16 21:44:06;;;;;;;8.60;6.00;;;;;;;20.88;46.65;99997.06;41382642;28;20052;-72
2024/01/16 22:04:07;;;;;;;8.48;5.65;;;;;;;20.95;46.53;99986.91;41392951;28;20117;-73
2024/01/16 22:24:09;;;;;;;8.43;5.95;;;;;;;20.80;46.84;99978.47;41394782;28;20120;-74
2024/01/16 22:44:09;;;;;;;7.82;5.15;;;;;;;20.72;46.72;99968.56;41334076;28;20038;-72
2024/01/16 23:04:10;;;;;;;6.93;5.10;;;;;;;20.67;46.77;99948.84;41223211;28;20820;-73
2024/01/16 23:24:10;;;;;;;5.90;4.53;;;;;;;20.56;47.69;99921.59;41327897;28;20109;-73
2024/01/16 23:44:13;;;;;;;7.65;5.55;;;;;;;20.49;47.53;99899.41;41387752;28;20532;-73
